PST,Max TemperatureF,Mean TemperatureF,Min TemperatureF,Max Dew PointF,MeanDew PointF,Min DewpointF,Max Humidity, Mean Humidity, Min Humidity, Max Sea Level PressureIn, Mean Sea Level PressureIn, Min Sea Level PressureIn, Max VisibilityMiles, Mean VisibilityMiles, Min VisibilityMiles, Max Wind SpeedMPH, Mean Wind SpeedMPH, Max Gust SpeedMPH,PrecipitationIn, CloudCover, Events, WindDirDegrees
2012-11-1,62,56,50,53,50,48,96,80,64,30.05,29.89,29.72,10,9,2,21,9,25,0.06,8,Rain,170
2012-11-2,58,53,47,52,50,47,100,86,72,30.05,30.02,29.97,10,7,0,7,2,9,0.16,5,Fog-Rain,188
2012-11-3,61,57,52,55,53,51,100,89,78,30.18,30.07,30.01,10,6,2,13,4,17,0.13,8,Rain,176
2012-11-4,69,62,55,58,56,54,93,81,68,30.31,30.25,30.18,10,9,5,12,4,15,0.01,7,Rain,148
2012-11-5,64,55,46,58,52,45,100,84,67,30.35,30.26,30.14,10,8,2,8,2,12,0.01,6,Rain,329
2012-11-6,57,53,48,54,51,46,100,90,80,30.13,30.07,30.04,10,6,1,7,1,8,0.03,8,Rain,312
2012-11-7,55,45,35,44,39,34,100,77,54,30.19,30.10,29.94,10,4,0,16,1,20,0.01,3,Fog-Rain,2
2012-11-8,48,41,33,40,37,32,100,86,71,29.92,29.83,29.78,10,6,0,7,1,9,0.00,6,Fog,226
2012-11-9,42,37,31,37,34,30,100,91,82,29.95,29.90,29.85,8,2,0,6,1,7,0.01,7,Fog,286
2012-11-10,43,36,29,36,32,28,100,85,70,30.24,30.10,29.95,10,3,0,7,1,16,T,7,Fog,274
2012-11-11,47,42,36,44,39,34,92,87,82,30.26,30.22,30.17,10,8,3,17,5,23,0.35,8,Rain,140
2012-11-12,52,49,46,48,46,43,100,92,83,30.26,30.19,30.14,10,7,2,20,7,25,0.33,8,Rain,177
2012-11-13,53,49,45,49,47,44,100,92,83,30.25,30.21,30.16,10,4,0,6,1,7,0.01,8,Fog-Rain,208
2012-11-14,53,44,35,48,44,36,100,92,83,30.31,30.26,30.22,10,5,0,8,2,12,0.00,6,Fog,279
2012-11-15,55,43,31,41,35,31,100,80,59,30.20,30.10,29.95,10,5,0,10,3,13,0.00,1,Fog,331
2012-11-16,47,43,38,44,41,37,100,93,86,29.96,29.89,29.75,10,6,1,6,1,7,0.00,8,,275
2012-11-17,51,47,43,48,44,39,100,92,83,29.81,29.67,29.56,10,7,1,17,6,23,0.61,7,Rain,183
2012-11-18,50,47,43,46,43,39,89,82,74,29.83,29.75,29.64,10,9,5,24,14,35,0.87,7,Rain,168
2012-11-19,55,52,49,52,48,46,93,83,72,29.74,29.61,29.52,10,6,2,36,18,48,2.03,8,Rain,179
2012-11-20,56,51,45,50,45,40,100,86,71,29.73,29.67,29.59,10,9,2,30,10,44,0.42,7,Rain,157
2012-11-21,49,40,31,42,37,30,100,83,66,30.34,30.04,29.62,10,8,1,21,8,29,0.38,4,Rain,194
2012-11-22,47,39,31,41,36,30,100,88,76,30.37,30.33,30.27,10,4,0,6,1,6,0.00,4,Fog,303
2012-11-23,49,43,36,48,41,36,100,95,89,30.28,30.21,30.13,10,4,0,9,2,12,0.95,7,Fog-Rain,70
2012-11-24,51,43,34,48,43,34,100,86,71,30.27,30.22,30.16,10,6,0,8,1,9,0.09,4,Fog-Rain,307
2012-11-25,48,40,32,38,34,30,100,83,65,30.30,30.26,30.12,10,4,0,9,2,14,0.00,5,Fog-Snow,37
2012-11-26,52,42,31,34,31,27,100,74,48,30.12,30.07,30.02,10,10,10,14,5,20,0.00,0,,83
2012-11-27,47,39,30,37,33,29,100,83,65,30.10,30.02,29.90,10,10,9,7,2,9,0.00,0,,294
2012-11-28,47,41,35,41,38,33,96,86,76,29.88,29.73,29.62,10,9,4,10,3,14,0.07,6,Rain,278
2012-11-29,54,46,37,47,43,37,100,86,71,29.69,29.59,29.49,10,8,3,20,6,26,0.27,7,Rain,150
2012-11-30,58,51,43,49,47,43,93,80,67,29.51,29.46,29.42,10,7,1,32,13,43,0.80,7,Rain,157